Time;durP1;ratioP1;P1;durP2;ratioP2;P2;SDS_P1;SDS_P2;PMS_P1;PMS_P2;Temp;Humidity;BMP_temperature;BMP_pressure;BME280_temperature;BME280_humidity;BME280_pressure;Samples;Min_cycle;Max_cycle;Signal;HPM_P1;HPM_P2
2023/04/03 00:01:32;;;;;;;2.08;0.95;;;7.00;99.90;;;;;;5095081;28;20024;-84
2023/04/03 00:03:58;;;;;;;1.67;1.20;;;7.00;99.90;;;;;;5096860;28;20031;-83
2023/04/03 00:06:24;;;;;;;3.17;0.95;;;7.00;99.90;;;;;;5096318;28;20342;-84
2023/04/03 00:08:50;;;;;;;3.08;1.10;;;7.00;99.90;;;;;;5098710;28;20126;-84
2023/04/03 00:11:16;;;;;;;2.00;1.20;;;6.90;99.90;;;;;;5096125;28;20073;-84
2023/04/03 00:13:42;;;;;;;1.63;1.13;;;7.00;99.90;;;;;;5097684;28;20028;-84
2023/04/03 00:16:10;;;;;;;1.55;0.93;;;6.90;99.90;;;;;;5099945;28;20027;-84
2023/04/03 00:18:36;;;;;;;1.10;1.00;;;6.90;99.90;;;;;;5098690;28;20055;-84
2023/04/03 00:21:03;;;;;;;2.33;1.13;;;6.90;99.90;;;;;;5098850;28;20465;-84
2023/04/03 00:23:29;;;;;;;1.40;0.90;;;7.00;99.90;;;;;;5098510;28;20024;-84
2023/04/03 00:25:55;;;;;;;2.22;1.00;;;6.90;99.90;;;;;;5100247;28;20322;-84
2023/04/03 00:28:21;;;;;;;1.98;0.90;;;6.90;99.90;;;;;;5097803;28;20120;-84
2023/04/03 00:30:49;;;;;;;1.73;0.85;;;6.90;99.90;;;;;;5099062;28;20078;-84
2023/04/03 00:33:14;;;;;;;1.25;1.10;;;6.90;99.90;;;;;;5097851;28;20032;-84
2023/04/03 00:35:40;;;;;;;1.42;1.00;;;6.90;99.90;;;;;;5097061;28;20036;-84
2023/04/03 00:38:06;;;;;;;1.80;1.00;;;6.90;99.90;;;;;;5097147;28;20036;-84
2023/04/03 00:40:37;;;;;;;2.15;1.05;;;6.90;99.90;;;;;;5098543;28;20024;-84
2023/04/03 00:43:21;;;;;;;1.70;0.80;;;6.90;99.90;;;;;;5099790;28;20028;-85
2023/04/03 00:45:52;;;;;;;1.75;0.90;;;6.90;99.90;;;;;;5098964;28;20029;-84
2023/04/03 00:48:25;;;;;;;1.30;0.90;;;6.90;99.90;;;;;;5099040;28;20129;-85
2023/04/03 00:50:52;;;;;;;1.40;0.90;;;6.90;99.90;;;;;;5097699;28;20348;-85
2023/04/03 00:53:33;;;;;;;1.67;0.70;;;6.90;99.90;;;;;;5096980;28;20525;-84
2023/04/03 00:56:00;;;;;;;1.58;0.70;;;6.90;99.90;;;;;;5097156;28;20020;-84
2023/04/03 00:58:38;;;;;;;2.17;0.98;;;6.90;99.90;;;;;;5096578;28;20096;-83
2023/04/03 01:01:10;;;;;;;1.55;0.90;;;6.90;99.90;;;;;;5097225;28;20063;-85
2023/04/03 01:03:36;;;;;;;3.55;0.98;;;6.80;99.90;;;;;;5096279;28;20501;-84
2023/04/03 01:06:01;;;;;;;2.95;1.70;;;6.80;99.90;;;;;;5097258;28;20027;-85
2023/04/03 01:08:27;;;;;;;2.13;1.20;;;6.80;99.90;;;;;;5096542;28;20118;-84
2023/04/03 01:10:53;;;;;;;2.40;1.10;;;6.80;99.90;;;;;;5097827;28;20206;-84
2023/04/03 01:13:29;;;;;;;2.05;0.80;;;6.70;99.90;;;;;;5098615;28;20519;-85
2023/04/03 01:15:55;;;;;;;2.90;1.00;;;6.70;99.90;;;;;;5098932;28;20024;-84
2023/04/03 01:18:23;;;;;;;2.50;1.02;;;6.70;99.90;;;;;;5099560;28;20030;-85
2023/04/03 01:20:55;;;;;;;1.13;1.00;;;6.70;99.90;;;;;;5095150;28;20028;-84
2023/04/03 01:23:45;;;;;;;2.47;1.10;;;6.70;99.90;;;;;;5094436;28;20082;-85
2023/04/03 01:26:12;;;;;;;2.90;1.00;;;6.60;99.90;;;;;;5072491;28;20034;-85
2023/04/03 01:28:37;;;;;;;2.97;0.90;;;6.60;99.90;;;;;;5093391;28;20542;-85
2023/04/03 01:31:12;;;;;;;1.60;0.83;;;6.50;99.90;;;;;;5093850;28;20028;-85
2023/04/03 01:33:38;;;;;;;2.20;0.85;;;6.50;99.90;;;;;;5093463;28;20024;-83
2023/04/03 01:36:05;;;;;;;1.00;0.90;;;6.40;99.90;;;;;;5094306;28;20028;-83
2023/04/03 01:38:31;;;;;;;2.73;1.00;;;6.50;99.90;;;;;;5093123;28;20035;-83
2023/04/03 01:40:56;;;;;;;1.40;0.88;;;6.40;99.90;;;;;;5093641;28;20494;-83
2023/04/03 01:43:22;;;;;;;2.65;1.15;;;6.40;99.90;;;;;;5094515;28;20035;-84
2023/04/03 01:45:49;;;;;;;3.53;1.17;;;6.40;99.90;;;;;;5093610;28;20024;-84
2023/04/03 01:48:15;;;;;;;1.77;1.07;;;6.30;99.90;;;;;;5110525;28;20032;-85
2023/04/03 01:50:41;;;;;;;1.67;1.23;;;6.30;99.90;;;;;;5110102;28;20035;-85
2023/04/03 01:53:07;;;;;;;1.57;1.10;;;6.20;99.90;;;;;;5094806;28;20020;-85
2023/04/03 01:55:32;;;;;;;3.07;1.00;;;6.20;99.90;;;;;;5093070;28;20376;-85
2023/04/03 01:57:58;;;;;;;1.42;1.10;;;6.20;99.90;;;;;;5110670;28;20028;-85
2023/04/03 02:00:24;;;;;;;1.83;1.10;;;6.10;99.90;;;;;;5094516;28;20032;-84
2023/04/03 02:02:49;;;;;;;4.70;1.40;;;6.10;99.90;;;;;;5094617;28;20465;-86
2023/04/03 02:05:15;;;;;;;3.50;1.80;;;6.10;99.90;;;;;;5093482;28;20020;-86
2023/04/03 02:07:41;;;;;;;2.73;1.20;;;6.10;99.90;;;;;;5109709;28;20084;-86
2023/04/03 02:10:07;;;;;;;3.33;1.37;;;6.10;99.90;;;;;;5094307;28;20101;-86
2023/04/03 02:12:32;;;;;;;2.70;1.00;;;6.10;99.90;;;;;;5093944;28;20496;-87
2023/04/03 02:14:58;;;;;;;1.45;0.90;;;6.00;99.90;;;;;;5092872;28;20070;-86
2023/04/03 02:17:24;;;;;;;2.40;1.10;;;6.00;99.90;;;;;;5093071;28;20028;-83
2023/04/03 02:19:50;;;;;;;1.20;1.00;;;6.00;99.90;;;;;;5093375;28;20028;-87
2023/04/03 02:22:15;;;;;;;2.03;1.00;;;5.90;99.90;;;;;;5093409;28;20035;-87
2023/04/03 02:24:41;;;;;;;2.00;1.07;;;5.90;99.90;;;;;;5092768;28;20354;-87
2023/04/03 02:27:07;;;;;;;2.90;1.20;;;5.90;99.90;;;;;;5093185;28;20047;-86
2023/04/03 02:29:32;;;;;;;2.47;1.20;;;5.90;99.90;;;;;;5109648;28;20059;-88
2023/04/03 02:31:58;;;;;;;3.30;1.30;;;5.90;99.90;;;;;;5093069;28;20460;-87
2023/04/03 02:34:24;;;;;;;4.60;1.37;;;5.80;99.90;;;;;;5092665;28;20081;-83
2023/04/03 02:36:50;;;;;;;1.47;0.90;;;5.80;99.90;;;;;;5094072;28;20052;-84
2023/04/03 02:39:16;;;;;;;1.47;1.10;;;5.80;99.90;;;;;;5110103;28;20047;-85
2023/04/03 02:41:42;;;;;;;2.57;1.13;;;5.80;99.90;;;;;;5109275;28;20032;-85
2023/04/03 02:44:10;;;;;;;1.10;0.80;;;5.70;99.90;;;;;;5092574;28;20034;-84
2023/04/03 02:46:35;;;;;;;2.47;1.00;;;5.70;99.90;;;;;;5092508;28;20024;-84
2023/04/03 02:49:01;;;;;;;2.33;1.00;;;5.70;99.90;;;;;;5093446;28;20043;-84
2023/04/03 02:51:27;;;;;;;1.50;1.17;;;5.60;99.90;;;;;;5093526;28;20048;-84
2023/04/03 02:53:53;;;;;;;3.40;1.10;;;5.60;99.90;;;;;;5093892;28;20060;-85
2023/04/03 02:56:19;;;;;;;1.67;1.10;;;5.60;99.90;;;;;;5109964;28;20028;-84
2023/04/03 02:58:44;;;;;;;3.97;1.10;;;5.60;99.90;;;;;;5092371;28;20032;-84
2023/04/03 03:01:10;;;;;;;2.33;1.10;;;5.60;99.90;;;;;;5093133;28;20032;-84
2023/04/03 03:03:37;;;;;;;1.20;1.10;;;5.50;99.90;;;;;;5093268;28;20107;-84
2023/04/03 03:06:11;;;;;;;2.10;1.20;;;5.50;99.90;;;;;;5093634;28;20028;-84
2023/04/03 03:08:37;;;;;;;1.50;1.00;;;5.50;99.90;;;;;;5109095;28;20039;-85
2023/04/03 03:11:03;;;;;;;3.23;1.07;;;5.50;99.90;;;;;;5093642;28;20122;-84
2023/04/03 03:13:29;;;;;;;2.47;1.30;;;5.40;99.90;;;;;;5092342;28;20063;-83
2023/04/03 03:15:55;;;;;;;3.33;1.10;;;5.40;99.90;;;;;;5092747;28;20027;-84
2023/04/03 03:18:21;;;;;;;2.17;1.23;;;5.40;99.90;;;;;;5092683;28;20069;-84
2023/04/03 03:20:50;;;;;;;2.03;1.13;;;5.40;99.90;;;;;;5092415;28;20051;-84
2023/04/03 03:23:16;;;;;;;1.87;1.20;;;5.30;99.90;;;;;;5092524;28;20032;-84
2023/04/03 03:25:41;;;;;;;1.53;1.10;;;5.30;99.90;;;;;;5092197;28;20059;-84
2023/04/03 03:28:07;;;;;;;1.80;1.10;;;5.30;99.90;;;;;;5095411;28;20096;-84
2023/04/03 03:30:33;;;;;;;1.93;0.90;;;5.30;99.90;;;;;;5095785;28;20050;-84
2023/04/03 03:32:59;;;;;;;3.07;1.17;;;5.30;99.90;;;;;;5096894;28;20469;-84
2023/04/03 03:35:25;;;;;;;2.80;1.10;;;5.30;99.90;;;;;;5096397;28;20032;-84
2023/04/03 03:37:51;;;;;;;3.70;1.20;;;5.30;99.90;;;;;;5113036;28;20028;-84
2023/04/03 03:40:16;;;;;;;1.70;1.10;;;5.30;99.90;;;;;;5097532;28;20035;-85
2023/04/03 03:42:42;;;;;;;2.00;1.20;;;5.30;99.90;;;;;;5095757;28;20114;-84
2023/04/03 03:45:08;;;;;;;3.13;1.00;;;5.30;99.90;;;;;;5113197;28;20026;-85
2023/04/03 03:47:34;;;;;;;1.83;1.10;;;5.30;99.90;;;;;;5095426;28;20028;-86
2023/04/03 03:50:00;;;;;;;2.23;1.10;;;5.30;99.90;;;;;;5095925;28;20040;-85
2023/04/03 03:52:26;;;;;;;2.53;1.10;;;5.30;99.90;;;;;;5095839;28;20097;-85
2023/04/03 03:54:52;;;;;;;1.87;1.03;;;5.30;99.90;;;;;;5097091;28;20062;-85
2023/04/03 03:57:17;;;;;;;2.67;0.97;;;5.40;99.90;;;;;;5112896;28;20082;-85
2023/04/03 03:59:44;;;;;;;1.43;1.10;;;5.30;99.90;;;;;;5095288;28;20073;-85
2023/04/03 04:02:10;;;;;;;2.80;1.10;;;5.30;99.90;;;;;;5095877;28;20024;-86
2023/04/03 04:04:36;;;;;;;2.40;1.20;;;5.30;99.90;;;;;;5096456;28;20024;-86
2023/04/03 04:07:02;;;;;;;2.20;0.97;;;5.30;99.90;;;;;;5112865;28;20028;-85
2023/04/03 04:09:28;;;;;;;2.17;1.20;;;5.30;99.90;;;;;;5095060;28;20036;-85
2023/04/03 04:11:54;;;;;;;1.67;1.17;;;5.30;99.90;;;;;;5095663;28;20169;-85
2023/04/03 04:14:22;;;;;;;1.37;1.10;;;5.30;99.90;;;;;;5096547;28;20035;-84
2023/04/03 04:16:48;;;;;;;2.83;1.30;;;5.30;99.90;;;;;;5112387;28;20542;-84
2023/04/03 04:19:14;;;;;;;1.87;1.20;;;5.30;99.90;;;;;;5112604;28;20032;-83
2023/04/03 04:21:41;;;;;;;2.00;1.10;;;5.30;99.90;;;;;;5095871;28;20097;-83
2023/04/03 04:24:07;;;;;;;3.03;1.20;;;5.30;99.90;;;;;;5095881;28;20066;-83
2023/04/03 04:26:33;;;;;;;3.67;1.50;;;5.30;99.90;;;;;;5095144;28;20024;-83
2023/04/03 04:28:59;;;;;;;1.60;1.10;;;5.30;99.90;;;;;;5095087;28;20054;-83
2023/04/03 04:31:25;;;;;;;1.53;1.10;;;5.30;99.90;;;;;;5112378;28;20028;-84
2023/04/03 04:33:51;;;;;;;3.30;1.10;;;5.30;99.90;;;;;;5095146;28;20062;-84
2023/04/03 04:36:17;;;;;;;2.30;0.97;;;5.30;99.90;;;;;;5094475;28;20032;-84
2023/04/03 04:38:42;;;;;;;1.77;1.40;;;5.40;99.90;;;;;;5093606;28;20131;-84
2023/04/03 04:41:08;;;;;;;1.40;1.00;;;5.40;99.90;;;;;;5095429;28;20035;-86
2023/04/03 04:43:34;;;;;;;2.60;1.20;;;5.40;99.90;;;;;;5094339;28;20126;-86
2023/04/03 04:46:08;;;;;;;2.10;1.10;;;5.40;99.90;;;;;;5092951;28;20024;-87
2023/04/03 04:48:34;;;;;;;2.63;1.20;;;5.40;99.90;;;;;;5092986;28;20028;-87
2023/04/03 04:51:00;;;;;;;2.83;0.90;;;5.40;99.90;;;;;;5077901;28;20024;-87
2023/04/03 04:53:26;;;;;;;2.20;1.07;;;5.30;99.90;;;;;;5095075;28;20024;-87
2023/04/03 04:55:52;;;;;;;2.43;1.00;;;5.30;99.90;;;;;;5094611;28;20028;-87
2023/04/03 04:58:18;;;;;;;4.17;1.30;;;5.30;99.90;;;;;;5094907;28;20465;-87
2023/04/03 05:00:44;;;;;;;1.43;1.00;;;5.30;99.90;;;;;;5094301;28;20036;-87
2023/04/03 05:03:10;;;;;;;2.70;1.13;;;5.20;99.90;;;;;;5094679;28;20024;-89
2023/04/03 05:05:35;;;;;;;2.07;1.20;;;5.10;99.90;;;;;;5095245;28;20476;-86
2023/04/03 05:08:02;;;;;;;1.33;1.20;;;5.10;99.90;;;;;;5094577;28;20028;-86
2023/04/03 05:10:28;;;;;;;2.73;1.23;;;5.00;99.90;;;;;;5095456;28;20111;-83
2023/04/03 05:12:54;;;;;;;2.90;1.10;;;5.00;99.90;;;;;;5094020;28;20086;-83
2023/04/03 05:15:19;;;;;;;2.23;1.10;;;4.90;99.90;;;;;;5095396;28;20059;-83
2023/04/03 05:17:45;;;;;;;1.53;1.10;;;4.90;99.90;;;;;;5093964;28;20028;-83
2023/04/03 05:20:11;;;;;;;2.20;1.03;;;4.90;99.90;;;;;;5094340;28;20032;-84
2023/04/03 05:22:37;;;;;;;3.47;1.07;;;4.90;99.90;;;;;;5093607;28;20476;-83
2023/04/03 05:25:03;;;;;;;3.07;1.30;;;4.80;99.90;;;;;;5095174;28;20020;-84
2023/04/03 05:27:29;;;;;;;3.13;0.93;;;4.80;99.90;;;;;;5093820;28;20040;-84
2023/04/03 05:29:55;;;;;;;1.60;1.10;;;4.80;99.90;;;;;;5093633;28;20036;-83
2023/04/03 05:32:22;;;;;;;2.17;1.30;;;4.80;99.90;;;;;;5094104;28;20028;-84
2023/04/03 05:34:47;;;;;;;1.90;1.10;;;4.80;99.90;;;;;;5094728;28;20020;-84
2023/04/03 05:37:13;;;;;;;2.63;1.00;;;4.80;99.90;;;;;;5094128;28;20030;-84
2023/04/03 05:39:40;;;;;;;3.80;1.17;;;4.70;99.90;;;;;;5093397;28;20039;-84
2023/04/03 05:42:06;;;;;;;1.43;0.97;;;4.70;99.90;;;;;;5094931;28;20085;-85
2023/04/03 05:44:33;;;;;;;1.13;0.93;;;4.70;99.90;;;;;;5093509;28;20020;-85
2023/04/03 05:46:58;;;;;;;4.20;1.87;;;4.70;99.90;;;;;;5093724;28;20027;-86
2023/04/03 05:49:24;;;;;;;1.97;1.20;;;4.70;99.90;;;;;;5092784;28;20162;-85
2023/04/03 05:51:51;;;;;;;3.33;1.13;;;4.70;99.90;;;;;;5093447;28;20020;-85
2023/04/03 05:54:28;;;;;;;1.90;1.10;;;4.70;99.90;;;;;;5093817;28;20512;-85
2023/04/03 05:56:54;;;;;;;1.93;1.03;;;4.70;99.90;;;;;;5094081;28;20111;-85
2023/04/03 05:59:20;;;;;;;1.40;1.03;;;4.80;99.90;;;;;;5110567;28;20526;-85
2023/04/03 06:01:47;;;;;;;2.00;1.10;;;4.80;99.90;;;;;;5093123;28;20051;-85
2023/04/03 06:04:14;;;;;;;7.10;2.27;;;4.80;99.90;;;;;;5093245;28;20483;-86
2023/04/03 06:06:51;;;;;;;4.10;2.10;;;4.80;99.90;;;;;;5093233;28;20431;-85
2023/04/03 06:09:19;;;;;;;3.30;1.17;;;4.90;99.90;;;;;;5094535;28;20032;-85
2023/04/03 06:11:45;;;;;;;2.50;1.47;;;4.90;99.90;;;;;;5093227;28;20466;-85
2023/04/03 06:14:11;;;;;;;1.13;0.90;;;5.00;99.90;;;;;;5093491;28;20028;-85
2023/04/03 06:16:38;;;;;;;2.90;1.30;;;5.00;99.90;;;;;;5093728;28;20354;-86
2023/04/03 06:19:04;;;;;;;1.70;1.20;;;5.00;99.90;;;;;;5093495;28;20118;-85
2023/04/03 06:21:30;;;;;;;2.67;1.23;;;5.10;99.90;;;;;;5093213;28;20051;-85
2023/04/03 06:23:55;;;;;;;1.63;1.10;;;5.20;99.90;;;;;;5092364;28;20473;-85
2023/04/03 06:26:22;;;;;;;2.57;1.10;;;5.20;99.90;;;;;;5109986;28;20031;-85
2023/04/03 06:28:47;;;;;;;2.17;1.27;;;5.20;99.90;;;;;;5092234;28;20048;-85
2023/04/03 06:31:13;;;;;;;2.03;1.40;;;5.20;99.90;;;;;;5093572;28;20042;-85
2023/04/03 06:33:39;;;;;;;1.93;1.00;;;5.10;99.90;;;;;;5093098;28;20024;-86
2023/04/03 06:36:05;;;;;;;1.33;0.83;;;5.10;99.90;;;;;;5093148;28;20028;-85
2023/04/03 06:38:32;;;;;;;3.53;1.00;;;5.10;99.90;;;;;;5093759;28;20031;-84
2023/04/03 06:40:58;;;;;;;3.30;1.20;;;5.00;99.90;;;;;;5092638;28;20031;-83
2023/04/03 06:43:24;;;;;;;3.60;1.00;;;5.00;99.90;;;;;;5092877;28;20032;-84
2023/04/03 06:45:50;;;;;;;2.93;1.00;;;5.10;99.90;;;;;;5092235;28;20024;-83
2023/04/03 06:48:16;;;;;;;3.00;1.50;;;5.10;99.90;;;;;;5092789;28;20036;-83
2023/04/03 06:50:42;;;;;;;1.20;1.10;;;5.10;99.90;;;;;;5093524;28;20537;-84
2023/04/03 06:53:08;;;;;;;2.67;1.33;;;5.10;99.90;;;;;;5092775;28;20081;-84
2023/04/03 06:55:34;;;;;;;4.00;1.20;;;5.20;99.90;;;;;;5092727;28;20024;-84
2023/04/03 06:58:00;;;;;;;1.93;1.30;;;5.20;99.90;;;;;;5093465;28;20095;-83
2023/04/03 07:00:25;;;;;;;4.30;1.50;;;5.20;99.90;;;;;;5093331;28;20024;-83
2023/04/03 07:02:51;;;;;;;2.87;1.30;;;5.10;99.90;;;;;;5113538;28;20028;-83
2023/04/03 07:05:18;;;;;;;2.27;1.30;;;5.20;99.90;;;;;;5114257;28;20492;-86
2023/04/03 07:07:43;;;;;;;3.10;1.50;;;5.20;99.90;;;;;;5097459;28;20372;-86
2023/04/03 07:10:09;;;;;;;3.23;1.30;;;5.30;99.90;;;;;;5096583;28;20039;-86
2023/04/03 07:12:35;;;;;;;2.67;1.47;;;5.30;99.90;;;;;;5096728;28;20035;-86
2023/04/03 07:15:02;;;;;;;3.10;1.57;;;5.30;99.90;;;;;;5096195;28;20024;-86
2023/04/03 07:17:28;;;;;;;2.70;1.30;;;5.40;99.90;;;;;;5097631;28;20126;-87
2023/04/03 07:19:53;;;;;;;3.57;1.40;;;5.30;99.90;;;;;;5097195;28;20063;-88
2023/04/03 07:22:19;;;;;;;4.37;1.60;;;5.30;99.90;;;;;;5097892;28;20032;-85
2023/04/03 07:24:45;;;;;;;2.30;1.67;;;5.40;99.90;;;;;;5096579;28;20031;-85
2023/04/03 07:27:12;;;;;;;4.90;1.60;;;5.40;99.90;;;;;;5096868;28;20024;-87
2023/04/03 07:29:38;;;;;;;1.60;1.20;;;5.40;99.90;;;;;;5095473;28;20085;-86
2023/04/03 07:32:05;;;;;;;5.23;1.63;;;5.40;99.90;;;;;;5096247;28;20020;-85
2023/04/03 07:34:31;;;;;;;4.27;1.70;;;5.50;99.90;;;;;;5097099;28;20024;-88
2023/04/03 07:36:57;;;;;;;2.73;1.47;;;5.50;99.90;;;;;;5095499;28;20102;-86
2023/04/03 07:39:23;;;;;;;2.33;1.50;;;5.50;99.90;;;;;;5095792;28;20032;-85
2023/04/03 07:41:48;;;;;;;4.83;2.10;;;5.60;99.90;;;;;;5096446;28;20495;-85
2023/04/03 07:44:14;;;;;;;3.53;1.60;;;5.60;99.90;;;;;;5095789;28;20030;-85
2023/04/03 07:46:40;;;;;;;6.27;1.50;;;5.70;99.90;;;;;;5096099;28;20024;-88
2023/04/03 07:49:06;;;;;;;4.27;1.60;;;5.70;99.90;;;;;;5090652;28;20035;-86
2023/04/03 07:51:32;;;;;;;2.13;1.50;;;5.80;99.90;;;;;;5090546;28;20016;-86
2023/04/03 07:53:58;;;;;;;3.77;1.30;;;5.80;99.90;;;;;;5094607;28;20539;-86
2023/04/03 07:56:25;;;;;;;2.60;1.70;;;5.90;99.90;;;;;;5095145;28;20065;-87
2023/04/03 07:58:50;;;;;;;2.23;1.40;;;5.90;99.90;;;;;;5094874;28;20035;-86
2023/04/03 08:01:16;;;;;;;2.70;1.50;;;6.00;99.90;;;;;;5095835;28;20016;-86
2023/04/03 08:03:42;;;;;;;3.10;1.73;;;6.00;99.90;;;;;;5094566;28;20020;-86
2023/04/03 08:06:08;;;;;;;3.57;1.63;;;6.00;99.90;;;;;;5096141;28;20024;-85
2023/04/03 08:08:35;;;;;;;4.97;1.87;;;6.10;99.90;;;;;;5094476;28;20036;-85
2023/04/03 08:11:02;;;;;;;1.67;1.40;;;6.10;99.90;;;;;;5094530;28;20036;-85
2023/04/03 08:13:29;;;;;;;3.50;1.63;;;6.20;99.90;;;;;;5094202;28;20016;-85
2023/04/03 08:15:56;;;;;;;2.37;1.67;;;6.20;99.90;;;;;;5094468;28;20028;-84
2023/04/03 08:18:24;;;;;;;2.87;1.57;;;6.20;99.90;;;;;;5095727;28;20035;-86
2023/04/03 08:20:51;;;;;;;2.70;1.60;;;6.30;99.90;;;;;;5094256;28;20115;-87
2023/04/03 08:23:17;;;;;;;2.30;1.50;;;6.30;99.90;;;;;;5094525;28;20065;-93
2023/04/03 08:25:43;;;;;;;1.67;1.50;;;6.40;99.90;;;;;;5093939;28;20024;-88
2023/04/03 08:28:10;;;;;;;3.10;1.70;;;6.50;99.90;;;;;;5094133;28;20048;-90
2023/04/03 08:30:39;;;;;;;2.93;1.60;;;6.50;99.90;;;;;;5094641;28;20055;-89
2023/04/03 08:33:04;;;;;;;4.07;1.67;;;6.60;99.90;;;;;;5094229;28;20472;-89
2023/04/03 08:35:30;;;;;;;5.57;1.73;;;6.80;99.90;;;;;;5095660;28;20020;-83
2023/04/03 08:37:56;;;;;;;4.73;1.70;;;7.00;99.90;;;;;;5094542;28;20035;-90
2023/04/03 08:40:22;;;;;;;3.57;1.50;;;7.20;99.90;;;;;;5094436;28;20028;-88
2023/04/03 08:43:25;;;;;;;3.55;1.63;;;7.30;99.90;;;;;;5110985;28;20481;-87
2023/04/03 08:45:57;;;;;;;4.60;1.50;;;7.50;99.90;;;;;;5056192;28;20035;-88
2023/04/03 08:48:42;;;;;;;2.75;1.63;;;7.50;99.90;;;;;;5095485;28;20024;-86
2023/04/03 08:51:19;;;;;;;2.13;1.55;;;7.60;99.90;;;;;;5078785;28;20042;-86
2023/04/03 08:54:05;;;;;;;2.85;1.40;;;7.50;99.90;;;;;;5093615;28;20035;-85
2023/04/03 08:56:33;;;;;;;2.72;1.25;;;7.70;99.90;;;;;;5094935;28;20483;-86
2023/04/03 08:59:13;;;;;;;2.50;1.30;;;7.60;99.90;;;;;;5073717;28;20082;-85
2023/04/03 09:01:40;;;;;;;1.73;1.10;;;7.70;99.90;;;;;;5083664;28;20031;-88
2023/04/03 09:04:16;;;;;;;3.70;1.20;;;7.80;99.90;;;;;;5094499;28;20063;-86
2023/04/03 09:06:51;;;;;;;2.58;1.25;;;7.90;99.90;;;;;;5093708;28;20457;-84
2023/04/03 09:09:49;;;;;;;3.25;1.30;;;8.10;99.90;;;;;;5094016;28;20055;-86
2023/04/03 09:12:26;;;;;;;3.38;1.00;;;8.10;99.90;;;;;;5081767;28;20052;-85
2023/04/03 09:15:22;;;;;;;1.45;1.00;;;8.10;99.90;;;;;;5094151;28;20020;-86
2023/04/03 09:17:57;;;;;;;4.80;1.80;;;8.10;99.90;;;;;;5080434;28;20055;-85
2023/04/03 09:20:41;;;;;;;3.97;1.10;;;8.20;99.90;;;;;;5094139;28;20464;-94
2023/04/03 09:23:27;;;;;;;4.10;1.23;;;8.30;99.90;;;;;;5078360;28;20017;-87
2023/04/03 09:26:00;;;;;;;3.42;1.00;;;8.20;99.90;;;;;;5093640;28;20055;-90
2023/04/03 09:28:27;;;;;;;3.85;1.10;;;8.10;99.90;;;;;;5110715;28;20068;-86
2023/04/03 09:30:53;;;;;;;1.95;0.93;;;8.00;99.90;;;;;;5093116;28;20043;-86
2023/04/03 09:33:21;;;;;;;2.65;0.93;;;8.10;99.90;;;;;;5094095;28;20016;-86
2023/04/03 09:35:48;;;;;;;5.30;1.13;;;8.20;99.90;;;;;;5109973;28;20035;-88
2023/04/03 09:38:15;;;;;;;2.35;0.77;;;8.40;99.90;;;;;;5094130;28;20024;-87
2023/04/03 09:41:01;;;;;;;4.05;1.00;;;8.50;99.90;;;;;;5093166;28;20093;-87
2023/04/03 09:43:30;;;;;;;5.78;1.45;;;8.70;99.90;;;;;;5094948;28;20487;-89
2023/04/03 09:46:16;;;;;;;4.00;1.00;;;8.80;99.90;;;;;;5094269;28;20024;-89
2023/04/03 09:48:58;;;;;;;2.67;1.00;;;9.00;99.90;;;;;;5093945;28;20112;-87
2023/04/03 09:51:28;;;;;;;4.15;1.00;;;9.00;99.70;;;;;;5094287;28;20051;-87
2023/04/03 09:53:54;;;;;;;2.17;1.20;;;8.90;98.80;;;;;;5092087;28;20328;-84
2023/04/03 09:56:30;;;;;;;2.25;0.80;;;8.90;99.70;;;;;;5091643;28;20024;-84
2023/04/03 09:58:58;;;;;;;2.30;1.00;;;9.10;99.00;;;;;;5090944;28;20469;-83
2023/04/03 10:01:29;;;;;;;2.97;0.90;;;9.20;98.20;;;;;;5091757;28;20024;-84
2023/04/03 10:04:16;;;;;;;3.37;0.90;;;9.20;97.40;;;;;;5085037;28;20110;-88
2023/04/03 10:06:51;;;;;;;2.08;0.77;;;9.10;95.80;;;;;;5092804;28;20261;-87
2023/04/03 10:09:19;;;;;;;2.97;0.90;;;9.20;97.40;;;;;;5093294;28;20036;-89
2023/04/03 10:12:06;;;;;;;1.48;0.68;;;9.30;97.30;;;;;;5092316;28;20032;-85
2023/04/03 10:14:38;;;;;;;2.40;0.80;;;9.30;95.40;;;;;;5093902;28;20094;-85
2023/04/03 10:17:25;;;;;;;2.13;0.77;;;9.30;94.80;;;;;;5093345;28;20103;-84
2023/04/03 10:20:07;;;;;;;1.45;0.73;;;9.30;94.20;;;;;;5082878;28;20069;-87
2023/04/03 10:22:49;;;;;;;4.85;1.10;;;9.40;94.90;;;;;;5088257;28;20040;-85
2023/04/03 10:25:41;;;;;;;1.13;0.70;;;9.50;94.40;;;;;;5079029;28;20035;-84
2023/04/03 10:28:10;;;;;;;2.50;0.80;;;9.60;94.90;;;;;;5092787;28;20131;-85
2023/04/03 10:30:54;;;;;;;2.40;0.77;;;9.70;94.10;;;;;;5093465;28;20063;-86
2023/04/03 10:33:35;;;;;;;2.70;0.85;;;9.70;92.40;;;;;;5093470;28;20024;-84
2023/04/03 10:36:33;;;;;;;1.83;0.80;;;9.70;92.80;;;;;;5091480;28;20500;-87
2023/04/03 10:39:26;;;;;;;2.10;1.02;;;9.80;91.70;;;;;;5076153;28;20043;-86
2023/04/03 10:41:59;;;;;;;0.65;0.60;;;9.70;91.70;;;;;;5092467;28;20028;-86
2023/04/03 10:44:57;;;;;;;0.80;0.60;;;9.70;91.60;;;;;;5093717;28;20028;-84
2023/04/03 10:47:50;;;;;;;1.92;0.77;;;9.70;90.80;;;;;;5078439;28;20024;-83
2023/04/03 10:50:59;;;;;;;2.00;0.80;;;9.80;89.00;;;;;;5088740;28;20429;-83
2023/04/03 10:53:35;;;;;;;1.17;0.68;;;9.80;88.20;;;;;;5090186;28;20468;-83
2023/04/03 10:56:42;;;;;;;4.03;0.85;;;9.80;90.50;;;;;;5089502;28;20031;-82
2023/04/03 10:59:36;;;;;;;1.17;0.80;;;9.70;90.00;;;;;;5077793;28;20047;-84
2023/04/03 11:02:23;;;;;;;1.95;0.80;;;9.80;89.80;;;;;;5093268;28;20112;-87
2023/04/03 11:04:54;;;;;;;1.65;0.95;;;9.80;89.30;;;;;;5093071;28;20465;-87
2023/04/03 11:07:24;;;;;;;2.33;0.98;;;9.90;89.60;;;;;;5093805;28;20423;-87
2023/04/03 11:09:55;;;;;;;1.45;0.63;;;9.90;88.20;;;;;;5108614;28;20044;-85
2023/04/03 11:12:24;;;;;;;2.17;0.77;;;10.00;85.80;;;;;;5092729;28;20028;-86
2023/04/03 11:14:53;;;;;;;1.10;0.70;;;10.10;86.00;;;;;;5091165;28;20032;-87
2023/04/03 11:17:45;;;;;;;1.45;0.70;;;10.10;85.00;;;;;;5091740;28;20032;-86
2023/04/03 11:20:14;;;;;;;1.90;0.80;;;10.00;82.80;;;;;;5092796;28;20484;-84
2023/04/03 11:22:42;;;;;;;1.55;0.73;;;10.10;84.50;;;;;;5092662;28;20032;-85
2023/04/03 11:25:11;;;;;;;1.85;0.75;;;10.00;84.10;;;;;;5093559;28;20048;-83
2023/04/03 11:27:55;;;;;;;1.30;0.60;;;10.00;85.10;;;;;;5091952;28;20044;-83
2023/04/03 11:30:30;;;;;;;2.40;0.90;;;10.00;85.10;;;;;;5092869;28;20024;-85
2023/04/03 11:33:21;;;;;;;3.45;0.60;;;10.00;86.70;;;;;;5091081;28;20027;-84
2023/04/03 11:36:01;;;;;;;0.65;0.60;;;10.30;85.20;;;;;;5091151;28;20020;-87
2023/04/03 11:38:43;;;;;;;2.65;0.90;;;10.30;86.70;;;;;;5092676;28;20481;-86
2023/04/03 11:41:10;;;;;;;4.80;0.90;;;10.30;85.30;;;;;;5077822;28;20115;-83
2023/04/03 11:44:01;;;;;;;0.60;0.60;;;10.30;86.50;;;;;;5092186;28;20024;-82
2023/04/03 11:47:07;;;;;;;1.42;0.80;;;10.40;85.90;;;;;;5088778;28;20040;-84
2023/04/03 11:49:55;;;;;;;1.65;0.93;;;10.50;85.50;;;;;;5054009;28;20029;-83
2023/04/03 11:52:39;;;;;;;1.20;0.60;;;10.60;86.20;;;;;;5038080;28;20025;-85
2023/04/03 11:55:22;;;;;;;3.58;0.70;;;10.40;80.80;;;;;;5054722;28;20124;-85
2023/04/03 11:58:00;;;;;;;1.60;0.95;;;10.30;79.80;;;;;;5054116;28;20120;-84
2023/04/03 12:00:46;;;;;;;1.77;0.68;;;10.30;82.20;;;;;;5054826;28;20074;-85
2023/04/03 12:03:26;;;;;;;2.30;0.80;;;10.30;82.60;;;;;;5054817;28;20033;-85
2023/04/03 12:05:57;;;;;;;1.48;0.60;;;10.30;82.60;;;;;;5053815;28;20057;-85
2023/04/03 12:08:47;;;;;;;2.20;1.20;;;10.30;83.10;;;;;;5054565;28;20045;-85
2023/04/03 12:11:12;;;;;;;3.38;0.98;;;10.30;84.30;;;;;;5054834;28;20041;-85
2023/04/03 12:13:56;;;;;;;1.48;0.80;;;10.30;83.00;;;;;;5054694;28;20375;-85
2023/04/03 12:16:42;;;;;;;2.17;0.90;;;10.40;83.10;;;;;;5079693;28;20043;-84
2023/04/03 12:19:14;;;;;;;1.95;0.75;;;10.50;84.60;;;;;;5058327;28;20029;-83
2023/04/03 12:21:48;;;;;;;1.90;0.90;;;10.50;83.70;;;;;;5095424;28;20042;-83
2023/04/03 12:24:16;;;;;;;2.22;0.90;;;10.40;84.40;;;;;;5096422;28;20027;-83
2023/04/03 12:27:00;;;;;;;1.13;0.80;;;10.20;83.30;;;;;;5095800;28;20480;-83
2023/04/03 12:29:34;;;;;;;0.88;0.70;;;10.20;83.20;;;;;;5096134;28;20040;-84
2023/04/03 12:32:07;;;;;;;3.63;0.98;;;10.10;84.60;;;;;;5095974;28;20024;-83
2023/04/03 12:34:47;;;;;;;2.38;0.80;;;10.10;84.20;;;;;;5095258;28;20027;-84
2023/04/03 12:37:36;;;;;;;2.33;0.80;;;10.20;84.00;;;;;;5096498;28;20125;-84
2023/04/03 12:40:21;;;;;;;4.00;1.08;;;10.30;82.20;;;;;;5094497;28;20131;-84
2023/04/03 12:42:52;;;;;;;1.02;0.68;;;10.60;82.40;;;;;;5094130;28;20035;-83
2023/04/03 12:45:22;;;;;;;1.23;0.82;;;10.70;81.40;;;;;;5095101;28;20028;-84
2023/04/03 12:47:55;;;;;;;2.22;0.90;;;10.70;80.00;;;;;;5094502;28;20047;-83
2023/04/03 12:50:30;;;;;;;1.83;0.80;;;10.50;80.00;;;;;;5095731;28;20036;-84
2023/04/03 12:53:19;;;;;;;1.52;0.90;;;10.30;81.40;;;;;;5094152;28;20372;-83
2023/04/03 12:55:45;;;;;;;1.85;1.20;;;10.30;81.20;;;;;;5094343;28;20035;-84
2023/04/03 12:58:27;;;;;;;1.48;0.80;;;10.60;79.60;;;;;;5095249;28;20028;-84
2023/04/03 13:01:11;;;;;;;1.92;0.98;;;10.70;78.80;;;;;;5095404;28;20028;-84
2023/04/03 13:03:40;;;;;;;1.23;0.80;;;10.80;78.60;;;;;;5095621;28;20087;-84
2023/04/03 13:06:05;;;;;;;2.38;0.80;;;10.90;78.60;;;;;;5094032;28;20028;-85
2023/04/03 13:08:32;;;;;;;1.58;0.90;;;10.90;78.90;;;;;;5088019;28;20042;-87
2023/04/03 13:11:11;;;;;;;2.45;1.10;;;10.80;77.30;;;;;;5093242;28;20038;-83
2023/04/03 13:13:37;;;;;;;1.70;0.80;;;10.60;78.60;;;;;;5094618;28;20026;-87